Main page
METAR-TAF:

METAR-TAF

Airports :

Paganella, Italy

latitude: 46-09N, longitude: 011-02E, elevation: 2125 m

Current weather observation

The report was made 44 minutes ago, at 19:55 UTC
Wind 13 kt from the South
Temperature 10°C
Humidity 93%
Pressure 1018 hPa
Visibility 10 km or more
Few clouds at a height of 1000 ft
Scattered clouds at a height of 5000 ft

METAR: LIVP 271955Z 18013KT 9999 FEW010 SCT050 10/09 Q1018 RMK BKN MON W CLD SCT VAL NIL VIS MIN 9999

Time: 22:39 (20:39 UTC)


TAF: missing

Weather observations and forecasts of more than 4000 airports (METAR and TAF reports).

The available stations are represented by yellow and red dots on the map.

Hover mouse over dot to see the name of the station.

Then click to see weather observations and forecasts.

To change the map : click on the green buttons with a black cross to zoom in, on the green button with a dash to zoom out, or on the green arrows for adjacent maps.


METAR-TAF: